createdAt,value
2017-09-22T00:00:40.286Z,5.9
2017-09-22T00:01:42.672Z,5.8
2017-09-22T00:02:45.068Z,5.8
2017-09-22T00:03:47.471Z,5.8
2017-09-22T00:04:49.860Z,5.8
2017-09-22T00:05:52.599Z,5.8
2017-09-22T00:06:54.989Z,5.8
2017-09-22T00:07:57.382Z,5.8
2017-09-22T00:08:59.788Z,5.8
2017-09-22T00:10:02.180Z,5.8
2017-09-22T00:11:04.901Z,5.8
2017-09-22T00:12:07.298Z,5.8
2017-09-22T00:13:09.685Z,5.8
2017-09-22T00:14:12.076Z,5.8
2017-09-22T00:15:14.473Z,5.8
2017-09-22T00:16:17.530Z,5.8
2017-09-22T00:17:19.918Z,5.8
2017-09-22T00:18:22.325Z,5.7
2017-09-22T00:19:24.714Z,5.9
2017-09-22T00:20:27.442Z,6
2017-09-22T00:21:29.838Z,5.8
2017-09-22T00:22:32.235Z,5.8
2017-09-22T00:23:34.624Z,5.8
2017-09-22T00:24:37.014Z,5.8
2017-09-22T00:25:39.407Z,5.8
2017-09-22T00:26:41.802Z,5.7
2017-09-22T00:27:44.193Z,5.7
2017-09-22T00:28:46.593Z,5.8
2017-09-22T00:29:48.981Z,5.8
2017-09-22T00:30:51.373Z,5.8
2017-09-22T00:31:54.130Z,5.7
2017-09-22T00:32:56.523Z,5.8
2017-09-22T00:33:58.911Z,5.8
2017-09-22T00:35:01.307Z,5.8
2017-09-22T00:36:03.689Z,5.7
2017-09-22T00:37:06.080Z,5.8
2017-09-22T00:38:08.476Z,5.7
2017-09-22T00:39:10.864Z,5.8
2017-09-22T00:40:13.263Z,5.8
2017-09-22T00:41:15.666Z,5.8
2017-09-22T00:42:18.046Z,5.8
2017-09-22T00:43:20.448Z,5.8
2017-09-22T00:44:22.835Z,5.7
2017-09-22T00:45:25.219Z,5.7
2017-09-22T00:46:27.615Z,5.7
2017-09-22T00:47:30.011Z,5.7
2017-09-22T00:48:32.392Z,5.6
2017-09-22T00:49:35.137Z,5.7
2017-09-22T00:50:37.523Z,5.6
2017-09-22T00:51:39.920Z,5.6
2017-09-22T00:52:42.307Z,5.6
2017-09-22T00:53:44.847Z,5.6
2017-09-22T00:54:47.236Z,5.7
2017-09-22T00:55:49.980Z,5.7
2017-09-22T00:56:52.370Z,5.6
2017-09-22T00:57:55.097Z,5.6
2017-09-22T00:58:57.488Z,5.6
2017-09-22T00:59:59.885Z,5.6
2017-09-22T01:01:02.283Z,5.7
2017-09-22T01:02:05.017Z,5.7
2017-09-22T01:03:07.744Z,5.7
2017-09-22T01:04:10.134Z,5.6
2017-09-22T01:05:12.530Z,5.6
2017-09-22T01:06:14.924Z,5.6
2017-09-22T01:07:17.321Z,5.7
2017-09-22T01:08:19.704Z,5.6
2017-09-22T01:09:22.092Z,5.6
2017-09-22T01:10:24.498Z,5.6
2017-09-22T01:11:26.893Z,5.7
2017-09-22T01:12:29.282Z,5.6
2017-09-22T01:13:31.679Z,5.6
2017-09-22T01:14:34.066Z,5.6
2017-09-22T01:15:36.461Z,5.6
2017-09-22T01:16:38.860Z,5.7
2017-09-22T01:17:41.240Z,5.6
2017-09-22T01:18:43.965Z,5.7
2017-09-22T01:19:46.362Z,5.6
2017-09-22T01:20:49.090Z,5.6
2017-09-22T01:21:51.476Z,5.6
2017-09-22T01:22:53.877Z,5.6
2017-09-22T01:23:56.609Z,5.6
2017-09-22T01:24:59.000Z,5.6
2017-09-22T01:26:01.393Z,5.6
2017-09-22T01:27:04.121Z,5.6
2017-09-22T01:28:06.510Z,5.6
2017-09-22T01:29:08.907Z,5.6
2017-09-22T01:30:11.297Z,5.5
2017-09-22T01:31:13.695Z,5.6
2017-09-22T01:32:16.083Z,5.5
2017-09-22T01:33:18.480Z,5.6
2017-09-22T01:34:20.871Z,5.5
2017-09-22T01:35:23.263Z,5.6
2017-09-22T01:36:25.651Z,5.6
2017-09-22T01:37:28.092Z,5.6
2017-09-22T01:38:30.483Z,5.5
2017-09-22T01:39:32.877Z,5.5
2017-09-22T01:40:35.264Z,5.6
2017-09-22T01:41:38.020Z,5.6
2017-09-22T01:42:40.407Z,5.6
2017-09-22T01:43:42.806Z,5.6
2017-09-22T01:44:45.193Z,5.6
2017-09-22T01:45:47.586Z,5.6
2017-09-22T01:46:49.972Z,5.6
2017-09-22T01:47:52.365Z,5.6
2017-09-22T01:48:54.754Z,5.5
2017-09-22T01:49:57.155Z,5.5
2017-09-22T01:50:59.548Z,5.5
2017-09-22T01:52:01.933Z,5.5
2017-09-22T01:53:04.672Z,5.5
2017-09-22T01:54:07.063Z,5.5
2017-09-22T01:55:09.459Z,5.5
2017-09-22T01:56:11.838Z,5.5
2017-09-22T01:57:14.247Z,5.6
2017-09-22T01:58:16.625Z,5.5
2017-09-22T01:59:19.355Z,5.5
2017-09-22T02:00:22.085Z,5.5
2017-09-22T02:01:24.474Z,5.5
2017-09-22T02:02:26.860Z,5.5
2017-09-22T02:03:29.255Z,5.6
2017-09-22T02:04:31.977Z,5.5
2017-09-22T02:05:34.723Z,5.5
2017-09-22T02:06:37.105Z,5.5
2017-09-22T02:07:39.499Z,5.5
2017-09-22T02:08:41.891Z,5.6
2017-09-22T02:09:44.284Z,5.5
2017-09-22T02:10:46.679Z,5.5
2017-09-22T02:11:49.074Z,5.6
2017-09-22T02:12:51.452Z,5.5
2017-09-22T02:13:53.846Z,5.5
2017-09-22T02:14:56.235Z,5.5
2017-09-22T02:15:58.627Z,5.5
2017-09-22T02:17:01.009Z,5.5
2017-09-22T02:18:03.403Z,5.5
2017-09-22T02:19:05.796Z,5.5
2017-09-22T02:20:08.182Z,5.5
2017-09-22T02:21:10.908Z,5.5
2017-09-22T02:22:13.304Z,5.5
2017-09-22T02:23:15.692Z,5.5
2017-09-22T02:24:18.081Z,5.5
2017-09-22T02:25:20.475Z,5.5
2017-09-22T02:26:22.861Z,5.5
2017-09-22T02:27:25.252Z,5.5
2017-09-22T02:28:27.652Z,5.5
2017-09-22T02:29:30.043Z,5.6
2017-09-22T02:30:32.423Z,5.5
2017-09-22T02:31:34.823Z,5.5
2017-09-22T02:32:37.212Z,5.5
2017-09-22T02:33:39.602Z,5.5
2017-09-22T02:34:42.029Z,5.5
2017-09-22T02:35:45.091Z,5.5
2017-09-22T02:36:47.482Z,5.5
2017-09-22T02:37:49.873Z,5.5
2017-09-22T02:38:52.261Z,5.5
2017-09-22T02:39:54.658Z,5.5
2017-09-22T02:40:57.053Z,5.5
2017-09-22T02:41:59.438Z,5.4
2017-09-22T02:43:01.834Z,5.5
2017-09-22T02:44:04.225Z,5.5
2017-09-22T02:45:06.960Z,5.5
2017-09-22T02:46:09.350Z,5.5
2017-09-22T02:47:11.745Z,5.4
2017-09-22T02:48:14.129Z,5.5
2017-09-22T02:49:16.521Z,5.4
2017-09-22T02:50:18.917Z,5.5
2017-09-22T02:51:21.638Z,5.5
2017-09-22T02:52:24.034Z,5.5
2017-09-22T02:53:26.758Z,5.4
2017-09-22T02:54:29.489Z,5.5
2017-09-22T02:55:31.874Z,5.5
2017-09-22T02:56:34.273Z,5.5
2017-09-22T02:57:36.660Z,5.5
2017-09-22T02:58:39.058Z,5.5
2017-09-22T02:59:41.446Z,5.5
2017-09-22T03:00:43.838Z,5.5
2017-09-22T03:01:46.232Z,5.5
2017-09-22T03:02:48.965Z,5.5
2017-09-22T03:03:51.689Z,5.5
2017-09-22T03:04:54.081Z,5.5
2017-09-22T03:05:56.467Z,5.4
2017-09-22T03:06:58.861Z,5.5
2017-09-22T03:08:01.594Z,5.5
2017-09-22T03:09:03.989Z,5.5
2017-09-22T03:10:06.374Z,5.4
2017-09-22T03:11:08.776Z,5.5
2017-09-22T03:12:11.161Z,5.5
2017-09-22T03:13:13.560Z,5.5
2017-09-22T03:14:15.944Z,5.5
2017-09-22T03:15:18.331Z,5.5
2017-09-22T03:16:20.727Z,5.5
2017-09-22T03:17:23.115Z,5.5
2017-09-22T03:18:25.508Z,5.5
2017-09-22T03:19:27.898Z,5.5
2017-09-22T03:20:30.286Z,5.5
2017-09-22T03:21:32.686Z,5.5
2017-09-22T03:22:35.072Z,5.5
2017-09-22T03:23:37.453Z,5.5
2017-09-22T03:24:39.848Z,5.5
2017-09-22T03:25:42.235Z,5.6
2017-09-22T03:26:44.973Z,5.7
2017-09-22T03:27:47.366Z,5.5
2017-09-22T03:28:49.744Z,5.6
2017-09-22T03:29:52.143Z,5.5
2017-09-22T03:30:54.539Z,5.8
2017-09-22T03:31:57.270Z,5.9
2017-09-22T03:32:59.669Z,5.7
2017-09-22T03:34:02.406Z,5.9
2017-09-22T03:35:04.797Z,5.7
2017-09-22T03:36:07.195Z,5.7
2017-09-22T03:37:09.589Z,5.7
2017-09-22T03:38:11.969Z,5.8
2017-09-22T03:39:14.705Z,5.8
2017-09-22T03:40:17.096Z,6.1
2017-09-22T03:41:19.820Z,5.7
2017-09-22T03:42:22.218Z,5.7
2017-09-22T03:43:24.949Z,5.7
2017-09-22T03:44:27.338Z,5.8
2017-09-22T03:45:30.082Z,5.8
2017-09-22T03:46:32.470Z,5.8
2017-09-22T03:47:34.857Z,5.6
2017-09-22T03:48:37.250Z,5.6
2017-09-22T03:49:39.642Z,5.7
2017-09-22T03:50:42.035Z,5.6
2017-09-22T03:51:44.420Z,5.6
2017-09-22T03:52:46.808Z,5.6
2017-09-22T03:53:49.196Z,5.6
2017-09-22T03:54:51.586Z,5.6
2017-09-22T03:55:53.986Z,5.6
2017-09-22T03:56:56.369Z,5.6
2017-09-22T03:57:58.778Z,5.6
2017-09-22T03:59:01.176Z,5.6
2017-09-22T04:00:03.592Z,5.6
2017-09-22T04:01:05.946Z,5.5
2017-09-22T04:02:08.342Z,5.5
2017-09-22T04:03:10.733Z,5.5
2017-09-22T04:04:13.466Z,5.5
2017-09-22T04:05:15.860Z,5.5
2017-09-22T04:06:18.250Z,5.6
2017-09-22T04:07:20.638Z,5.6
2017-09-22T04:08:23.027Z,5.5
2017-09-22T04:09:25.424Z,5.5
2017-09-22T04:10:27.815Z,5.5
2017-09-22T04:11:30.557Z,5.4
2017-09-22T04:12:32.954Z,5.5
2017-09-22T04:13:35.345Z,5.4
2017-09-22T04:14:37.740Z,5.5
2017-09-22T04:15:40.472Z,5.5
2017-09-22T04:16:42.866Z,5.5
2017-09-22T04:17:45.262Z,5.5
2017-09-22T04:18:47.650Z,5.4
2017-09-22T04:19:50.375Z,5.5
2017-09-22T04:20:53.123Z,5.4
2017-09-22T04:21:55.515Z,5.4
2017-09-22T04:22:57.903Z,5.4
2017-09-22T04:24:00.296Z,5.5
2017-09-22T04:25:02.700Z,5.4
2017-09-22T04:26:05.095Z,5.5
2017-09-22T04:27:07.496Z,5.5
2017-09-22T04:28:09.880Z,5.5
2017-09-22T04:29:12.270Z,5.4
2017-09-22T04:30:14.661Z,5.4
2017-09-22T04:31:17.058Z,5.4
2017-09-22T04:32:19.444Z,5.4
2017-09-22T04:33:21.831Z,5.4
2017-09-22T04:34:24.224Z,5.4
2017-09-22T04:35:26.620Z,5.4
2017-09-22T04:36:29.359Z,5.4
2017-09-22T04:37:31.746Z,5.4
2017-09-22T04:38:34.134Z,5.4
2017-09-22T04:39:36.534Z,5.4
2017-09-22T04:40:38.922Z,5.4
2017-09-22T04:41:41.322Z,5.4
2017-09-22T04:42:44.042Z,5.4
2017-09-22T04:43:46.445Z,5.4
2017-09-22T04:44:48.834Z,5.4
2017-09-22T04:45:51.581Z,5.4
2017-09-22T04:46:53.964Z,5.4
2017-09-22T04:47:56.351Z,5.5
2017-09-22T04:48:58.741Z,5.4
2017-09-22T04:50:01.142Z,5.4
2017-09-22T04:51:03.878Z,5.4
2017-09-22T04:52:06.265Z,5.4
2017-09-22T04:53:08.661Z,5.4
2017-09-22T04:54:11.395Z,5.4
2017-09-22T04:55:13.775Z,5.4
2017-09-22T04:56:16.169Z,5.4
2017-09-22T04:57:18.564Z,5.4
2017-09-22T04:58:20.953Z,5.4
2017-09-22T04:59:23.678Z,5.4
2017-09-22T05:00:26.411Z,5.4
2017-09-22T05:01:28.798Z,5.4
2017-09-22T05:02:31.198Z,5.4
2017-09-22T05:03:33.593Z,5.5
2017-09-22T05:04:35.981Z,5.5
2017-09-22T05:05:38.384Z,5.5
2017-09-22T05:06:40.772Z,5.4
2017-09-22T05:07:43.164Z,5.4
2017-09-22T05:08:45.568Z,5.4
2017-09-22T05:09:48.290Z,5.4
2017-09-22T05:10:50.688Z,5.4
2017-09-22T05:11:53.083Z,5.4
2017-09-22T05:12:55.468Z,5.4
2017-09-22T05:13:57.858Z,5.4
2017-09-22T05:15:00.253Z,5.5
2017-09-22T05:16:02.639Z,5.4
2017-09-22T05:17:05.027Z,5.4
2017-09-22T05:18:07.424Z,5.4
2017-09-22T05:19:09.820Z,5.4
2017-09-22T05:20:12.211Z,5.4
2017-09-22T05:21:14.599Z,5.4
2017-09-22T05:22:16.994Z,5.4
2017-09-22T05:23:19.380Z,5.4
2017-09-22T05:24:21.773Z,5.4
2017-09-22T05:25:24.161Z,5.4
2017-09-22T05:26:26.556Z,5.4
2017-09-22T05:27:28.953Z,5.4
2017-09-22T05:28:31.348Z,5.4
2017-09-22T05:29:33.733Z,5.4
2017-09-22T05:30:36.797Z,5.4
2017-09-22T05:31:39.531Z,5.4
2017-09-22T05:32:42.264Z,5.4
2017-09-22T05:33:44.649Z,5.4
2017-09-22T05:34:47.040Z,5.4
2017-09-22T05:35:49.432Z,5.4
2017-09-22T05:36:51.821Z,5.4
2017-09-22T05:37:54.215Z,5.4
2017-09-22T05:38:56.603Z,5.4
2017-09-22T05:39:58.989Z,5.4
2017-09-22T05:41:01.389Z,5.4
2017-09-22T05:42:03.777Z,5.4
2017-09-22T05:43:06.173Z,5.4
2017-09-22T05:44:08.560Z,5.4
2017-09-22T05:45:11.297Z,5.4
2017-09-22T05:46:14.028Z,5.4
2017-09-22T05:47:16.419Z,5.4
2017-09-22T05:48:18.861Z,5.4
2017-09-22T05:49:24.176Z,5.4
2017-09-22T05:50:27.813Z,5.4
2017-09-22T05:51:30.201Z,5.4
2017-09-22T05:52:32.587Z,5.4
2017-09-22T05:53:35.322Z,5.4
2017-09-22T05:54:37.710Z,5.4
2017-09-22T05:55:40.094Z,5.4
2017-09-22T05:56:42.493Z,5.3
2017-09-22T05:57:44.885Z,5.4
2017-09-22T05:58:47.274Z,5.4
2017-09-22T05:59:49.698Z,5.4
2017-09-22T06:00:52.077Z,5.4
2017-09-22T06:01:54.545Z,5.3
2017-09-22T06:02:57.280Z,5.4
2017-09-22T06:03:59.683Z,5.4
2017-09-22T06:05:02.075Z,5.4
2017-09-22T06:06:04.468Z,5.3
2017-09-22T06:07:07.204Z,5.4
2017-09-22T06:08:09.605Z,5.4
2017-09-22T06:09:12.331Z,5.5
2017-09-22T06:10:14.722Z,5.4
2017-09-22T06:11:17.782Z,5.4
2017-09-22T06:12:20.516Z,5.4
2017-09-22T06:13:22.904Z,5.4
2017-09-22T06:14:25.365Z,5.4
2017-09-22T06:15:27.751Z,5.4
2017-09-22T06:16:30.148Z,5.4
2017-09-22T06:17:32.547Z,5.4
2017-09-22T06:18:34.930Z,5.4
2017-09-22T06:19:37.321Z,5.5
2017-09-22T06:20:39.708Z,5.6
2017-09-22T06:21:42.094Z,5.5
2017-09-22T06:22:44.484Z,5.5
2017-09-22T06:23:46.886Z,5.4
2017-09-22T06:24:49.269Z,5.5
2017-09-22T06:25:51.661Z,5.5
2017-09-22T06:26:54.061Z,5.4
2017-09-22T06:27:56.452Z,5.4
2017-09-22T06:28:58.846Z,5.5
2017-09-22T06:30:01.234Z,5.4
2017-09-22T06:31:03.621Z,5.4
2017-09-22T06:32:06.024Z,5.4
2017-09-22T06:33:08.411Z,5.4
2017-09-22T06:34:11.140Z,5.4
2017-09-22T06:35:13.533Z,5.4
2017-09-22T06:36:15.921Z,5.4
2017-09-22T06:37:18.316Z,5.4
2017-09-22T06:38:20.715Z,5.4
2017-09-22T06:39:23.098Z,5.5
2017-09-22T06:40:25.488Z,5.4
2017-09-22T06:41:27.892Z,5.4
2017-09-22T06:42:30.279Z,5.4
2017-09-22T06:43:32.672Z,5.5
2017-09-22T06:44:35.068Z,5.4
2017-09-22T06:45:37.454Z,5.5
2017-09-22T06:46:39.849Z,5.6
2017-09-22T06:47:42.249Z,5.5
2017-09-22T06:48:44.629Z,5.5
2017-09-22T06:49:47.025Z,5.5
2017-09-22T06:50:49.419Z,5.5
2017-09-22T06:51:52.144Z,5.6
2017-09-22T06:52:54.545Z,5.5
2017-09-22T06:53:57.295Z,5.5
2017-09-22T06:54:59.685Z,5.6
2017-09-22T06:56:02.087Z,5.6
2017-09-22T06:57:04.487Z,5.5
2017-09-22T06:58:06.871Z,5.5
2017-09-22T06:59:09.268Z,5.5
2017-09-22T07:00:11.998Z,5.5
2017-09-22T07:01:14.388Z,5.6
2017-09-22T07:02:16.785Z,5.6
2017-09-22T07:03:19.504Z,5.5
2017-09-22T07:04:21.892Z,5.6
2017-09-22T07:05:24.289Z,5.6
2017-09-22T07:06:26.678Z,5.6
2017-09-22T07:07:29.068Z,5.6
2017-09-22T07:08:31.471Z,5.5
2017-09-22T07:09:33.856Z,5.6
2017-09-22T07:10:36.590Z,5.6
2017-09-22T07:11:38.987Z,5.6
2017-09-22T07:12:41.733Z,5.6
2017-09-22T07:13:44.116Z,5.6
2017-09-22T07:14:46.516Z,5.6
2017-09-22T07:15:49.242Z,5.6
2017-09-22T07:16:51.637Z,5.7
2017-09-22T07:17:54.025Z,5.7
2017-09-22T07:18:56.763Z,5.7
2017-09-22T07:19:59.154Z,5.9
2017-09-22T07:21:01.546Z,5.7
2017-09-22T07:22:03.953Z,5.8
2017-09-22T07:23:06.335Z,5.9
2017-09-22T07:24:08.733Z,5.8
2017-09-22T07:25:11.132Z,5.8
2017-09-22T07:26:13.523Z,5.8
2017-09-22T07:27:15.919Z,5.8
2017-09-22T07:28:18.319Z,5.8
2017-09-22T07:29:20.708Z,5.8
2017-09-22T07:30:23.108Z,5.8
2017-09-22T07:31:25.496Z,5.9
2017-09-22T07:32:27.889Z,5.8
2017-09-22T07:33:30.284Z,5.8
2017-09-22T07:34:32.680Z,5.8
2017-09-22T07:35:35.073Z,5.9
2017-09-22T07:36:37.474Z,5.9
2017-09-22T07:37:39.870Z,5.9
2017-09-22T07:38:42.265Z,5.9
2017-09-22T07:39:44.996Z,5.9
2017-09-22T07:40:47.388Z,5.9
2017-09-22T07:41:49.779Z,5.8
2017-09-22T07:42:52.180Z,5.9
2017-09-22T07:43:54.581Z,5.9
2017-09-22T07:44:57.328Z,5.9
2017-09-22T07:46:00.081Z,6
2017-09-22T07:47:02.465Z,5.9
2017-09-22T07:48:04.852Z,5.9
2017-09-22T07:49:07.249Z,6
2017-09-22T07:50:09.644Z,6
2017-09-22T07:51:12.050Z,6
2017-09-22T07:52:14.444Z,6
2017-09-22T07:53:16.837Z,6
2017-09-22T07:54:19.245Z,6
2017-09-22T07:55:21.637Z,6
2017-09-22T07:56:24.047Z,6
2017-09-22T07:57:26.441Z,6
2017-09-22T07:58:28.833Z,6.1
2017-09-22T07:59:31.939Z,6
2017-09-22T08:00:34.337Z,6
2017-09-22T08:01:36.732Z,6.1
2017-09-22T08:02:39.129Z,6
2017-09-22T08:03:41.530Z,6
2017-09-22T08:04:43.923Z,6
2017-09-22T08:05:46.329Z,6.1
2017-09-22T08:06:48.722Z,6.1
2017-09-22T08:07:51.112Z,6.3
2017-09-22T08:08:53.514Z,6.4
2017-09-22T08:09:55.908Z,6.2
2017-09-22T08:10:58.303Z,6.3
2017-09-22T08:12:01.066Z,6.3
2017-09-22T08:13:03.457Z,6.1
2017-09-22T08:14:05.870Z,6.2
2017-09-22T08:15:08.272Z,6.3
2017-09-22T08:16:10.677Z,6.3
2017-09-22T08:17:13.423Z,6.2
2017-09-22T08:18:15.813Z,6.2
2017-09-22T08:19:18.207Z,6.2
2017-09-22T08:20:20.614Z,6.1
2017-09-22T08:21:23.013Z,6.3
2017-09-22T08:22:25.418Z,6.2
2017-09-22T08:23:27.820Z,6.2
2017-09-22T08:24:30.217Z,6.2
2017-09-22T08:25:32.613Z,6.2
2017-09-22T08:26:35.016Z,6.2
2017-09-22T08:27:37.751Z,6.3
2017-09-22T08:28:40.158Z,6.2
2017-09-22T08:29:42.568Z,6.3
2017-09-22T08:30:44.961Z,6.3
2017-09-22T08:31:47.365Z,6.3
2017-09-22T08:32:49.772Z,6.3
2017-09-22T08:33:52.176Z,6.3
2017-09-22T08:34:54.584Z,6.3
2017-09-22T08:35:56.989Z,6.3
2017-09-22T08:36:59.385Z,6.4
2017-09-22T08:38:01.800Z,6.4
2017-09-22T08:39:04.205Z,6.4
2017-09-22T08:40:06.599Z,6.5
2017-09-22T08:41:09.007Z,6.5
2017-09-22T08:42:11.404Z,6.5
2017-09-22T08:43:14.153Z,6.4
2017-09-22T08:44:16.905Z,6.4
2017-09-22T08:45:19.308Z,6.4
2017-09-22T08:46:22.082Z,6.4
2017-09-22T08:47:24.496Z,6.5
2017-09-22T08:48:26.909Z,6.5
2017-09-22T08:49:29.312Z,6.5
2017-09-22T08:50:31.721Z,6.5
2017-09-22T08:51:34.126Z,6.5
2017-09-22T08:52:36.877Z,6.6
2017-09-22T08:53:39.276Z,6.6
2017-09-22T08:54:41.689Z,6.6
2017-09-22T08:55:44.094Z,6.6
2017-09-22T08:56:46.506Z,6.7
2017-09-22T08:57:48.921Z,6.7
2017-09-22T08:58:51.326Z,6.7
2017-09-22T08:59:53.740Z,6.7
2017-09-22T09:00:56.155Z,6.7
2017-09-22T09:01:58.561Z,6.7
2017-09-22T09:03:00.981Z,6.8
2017-09-22T09:04:03.378Z,6.8
2017-09-22T09:05:05.794Z,6.8
2017-09-22T09:06:08.209Z,6.9
2017-09-22T09:07:10.621Z,6.9
2017-09-22T09:08:13.022Z,6.9
2017-09-22T09:09:15.775Z,6.9
2017-09-22T09:10:18.185Z,6.9
2017-09-22T09:11:20.606Z,6.9
2017-09-22T09:12:23.019Z,6.9
2017-09-22T09:13:25.422Z,6.9
2017-09-22T09:14:27.837Z,6.9
2017-09-22T09:15:30.246Z,6.9
2017-09-22T09:16:32.657Z,6.9
2017-09-22T09:17:35.068Z,7
2017-09-22T09:18:37.485Z,6.9
2017-09-22T09:19:39.896Z,7
2017-09-22T09:20:42.302Z,7
2017-09-22T09:21:44.708Z,7
2017-09-22T09:22:47.127Z,7
2017-09-22T09:23:49.539Z,7
2017-09-22T09:24:51.962Z,7
2017-09-22T09:25:54.372Z,7
2017-09-22T09:26:56.789Z,7.1
2017-09-22T09:27:59.212Z,7
2017-09-22T09:29:01.620Z,7
2017-09-22T09:30:04.033Z,7
2017-09-22T09:31:06.442Z,7.1
2017-09-22T09:32:09.201Z,7.1
2017-09-22T09:33:11.607Z,7
2017-09-22T09:34:14.019Z,7
2017-09-22T09:35:16.431Z,7
2017-09-22T09:36:18.838Z,7
2017-09-22T09:37:21.254Z,7
2017-09-22T09:38:23.663Z,7
2017-09-22T09:39:26.082Z,7
2017-09-22T09:40:28.494Z,7
2017-09-22T09:41:30.911Z,7
2017-09-22T09:42:33.322Z,7
2017-09-22T09:43:35.736Z,7
2017-09-22T09:44:38.139Z,7
2017-09-22T09:45:40.554Z,7
2017-09-22T09:46:42.963Z,7
2017-09-22T09:47:45.370Z,7.1
2017-09-22T09:48:47.785Z,7
2017-09-22T09:49:50.536Z,7.1
2017-09-22T09:50:52.942Z,7.1
2017-09-22T09:51:55.369Z,7.1
2017-09-22T09:52:57.777Z,7.1
2017-09-22T09:54:00.523Z,7.1
2017-09-22T09:55:02.935Z,7.1
2017-09-22T09:56:05.345Z,7.1
2017-09-22T09:57:07.758Z,7.1
2017-09-22T09:58:10.177Z,7.1
2017-09-22T09:59:12.587Z,7.1
2017-09-22T10:00:14.995Z,7.1
2017-09-22T10:01:17.414Z,7.1
2017-09-22T10:02:19.824Z,7.2
2017-09-22T10:03:22.236Z,7.2
2017-09-22T10:04:24.654Z,7.2
2017-09-22T10:05:27.065Z,7.2
2017-09-22T10:06:29.482Z,7.2
2017-09-22T10:07:31.901Z,7.1
2017-09-22T10:08:34.308Z,7.1
2017-09-22T10:09:36.727Z,7.2
2017-09-22T10:10:39.140Z,7.2
2017-09-22T10:11:41.545Z,7.2
2017-09-22T10:12:43.961Z,7.2
2017-09-22T10:13:46.374Z,7.3
2017-09-22T10:14:48.792Z,7.2
2017-09-22T10:15:51.197Z,7.2
2017-09-22T10:16:53.614Z,7.2
2017-09-22T10:17:56.029Z,7.2
2017-09-22T10:18:58.440Z,7.2
2017-09-22T10:20:00.852Z,7.3
2017-09-22T10:21:03.273Z,7.2
2017-09-22T10:22:05.684Z,7.3
2017-09-22T10:23:08.109Z,7.3
2017-09-22T10:24:10.856Z,7.2
2017-09-22T10:25:13.606Z,7.2
2017-09-22T10:26:16.024Z,7.3
2017-09-22T10:27:18.442Z,7.3
2017-09-22T10:28:20.853Z,7.3
2017-09-22T10:29:23.274Z,7.3
2017-09-22T10:30:25.686Z,7.3
2017-09-22T10:31:28.096Z,7.2
2017-09-22T10:32:30.511Z,7.3
2017-09-22T10:33:33.273Z,7.2
2017-09-22T10:34:35.679Z,7.3
2017-09-22T10:35:38.106Z,7.3
2017-09-22T10:36:40.512Z,7.2
2017-09-22T10:37:43.268Z,7.2
2017-09-22T10:38:46.059Z,7.2
2017-09-22T10:39:48.468Z,7.3
2017-09-22T10:40:50.878Z,7.3
2017-09-22T10:41:53.308Z,7.2
2017-09-22T10:42:55.720Z,7.3
2017-09-22T10:43:58.130Z,7.2
2017-09-22T10:45:00.549Z,7.2
2017-09-22T10:46:02.973Z,7.3
2017-09-22T10:47:05.727Z,7.3
2017-09-22T10:48:08.146Z,7.2
2017-09-22T10:49:10.560Z,7.3
2017-09-22T10:50:12.966Z,7.3
2017-09-22T10:51:15.389Z,7.3
2017-09-22T10:52:17.795Z,7.3
2017-09-22T10:53:20.203Z,7.3
2017-09-22T10:54:22.630Z,7.3
2017-09-22T10:55:25.045Z,7.3
2017-09-22T10:56:27.464Z,7.3
2017-09-22T10:57:29.887Z,7.3
2017-09-22T10:58:32.294Z,7.3
2017-09-22T10:59:34.717Z,7.2
2017-09-22T11:00:37.136Z,7.3
2017-09-22T11:01:39.547Z,7.3
2017-09-22T11:02:41.968Z,7.3
2017-09-22T11:03:44.384Z,7.3
2017-09-22T11:04:46.791Z,7.3
2017-09-22T11:05:49.217Z,7.2
2017-09-22T11:06:51.637Z,7.3
2017-09-22T11:07:54.044Z,7.3
2017-09-22T11:08:56.468Z,7.3
2017-09-22T11:09:58.883Z,7.3
2017-09-22T11:11:01.297Z,7.2
2017-09-22T11:12:04.075Z,7.3
2017-09-22T11:13:06.494Z,7.3
2017-09-22T11:14:08.919Z,7.3
2017-09-22T11:15:11.328Z,7.3
2017-09-22T11:16:13.751Z,7.3
2017-09-22T11:17:16.166Z,7.3
2017-09-22T11:18:18.595Z,7.3
2017-09-22T11:19:21.012Z,7.3
2017-09-22T11:20:23.424Z,7.3
2017-09-22T11:21:25.834Z,7.3
2017-09-22T11:22:28.254Z,7.3
2017-09-22T11:23:30.666Z,7.3
2017-09-22T11:24:33.083Z,7.2
2017-09-22T11:25:35.497Z,7.3
2017-09-22T11:26:37.914Z,7.3
2017-09-22T11:27:40.322Z,7.3
2017-09-22T11:28:42.739Z,7.3
2017-09-22T11:29:45.149Z,7.3
2017-09-22T11:30:47.566Z,7.3
2017-09-22T11:31:50.327Z,7.3
2017-09-22T11:32:52.740Z,7.3
2017-09-22T11:33:55.147Z,7.3
2017-09-22T11:34:57.563Z,7.2
2017-09-22T11:36:00.313Z,7.3
2017-09-22T11:37:02.732Z,7.3
2017-09-22T11:38:05.147Z,7.3
2017-09-22T11:39:07.568Z,7.3
2017-09-22T11:40:09.980Z,7.2
2017-09-22T11:41:12.394Z,7.3
2017-09-22T11:42:14.813Z,7.3
2017-09-22T11:43:17.218Z,7.3
2017-09-22T11:44:20.012Z,7.2
2017-09-22T11:45:22.432Z,7.3
2017-09-22T11:46:24.844Z,7.3
2017-09-22T11:47:27.256Z,7.3
2017-09-22T11:48:29.676Z,7.3
2017-09-22T11:49:32.419Z,7.3
2017-09-22T11:50:34.852Z,7.3
2017-09-22T11:51:37.612Z,7.3
2017-09-22T11:52:40.022Z,7.3
2017-09-22T11:53:42.437Z,7.3
2017-09-22T11:54:44.859Z,7.3
2017-09-22T11:55:47.277Z,7.3
2017-09-22T11:56:49.700Z,7.3
2017-09-22T11:57:52.105Z,7.3
2017-09-22T11:58:54.854Z,7.3
2017-09-22T11:59:57.606Z,7.3
2017-09-22T12:01:00.031Z,7.3
2017-09-22T12:02:02.439Z,7.3
2017-09-22T12:03:04.860Z,7.3
2017-09-22T12:04:07.275Z,7.2
2017-09-22T12:05:09.692Z,7.3
2017-09-22T12:06:12.116Z,7.3
2017-09-22T12:07:14.530Z,7.3
2017-09-22T12:08:17.290Z,7.3
2017-09-22T12:09:19.708Z,7.3
2017-09-22T12:10:22.126Z,7.3
2017-09-22T12:11:24.540Z,7.3
2017-09-22T12:12:26.956Z,7.3
2017-09-22T12:13:29.373Z,7.3
2017-09-22T12:14:31.786Z,7.3
2017-09-22T12:15:34.200Z,7.3
2017-09-22T12:16:36.623Z,7.3
2017-09-22T12:17:39.041Z,7.2
2017-09-22T12:18:41.471Z,7.3
2017-09-22T12:19:43.914Z,7.3
2017-09-22T12:20:46.548Z,7.3
2017-09-22T12:21:48.983Z,7.3
2017-09-22T12:22:51.426Z,7.3
2017-09-22T12:23:53.997Z,7.3
2017-09-22T12:24:56.435Z,7.3
2017-09-22T12:25:58.878Z,7.3
2017-09-22T12:27:01.300Z,7.2
2017-09-22T12:28:03.730Z,7.3
2017-09-22T12:29:06.155Z,7.3
2017-09-22T12:30:08.582Z,7.3
2017-09-22T12:31:11.035Z,7.3
2017-09-22T12:32:13.445Z,7.3
2017-09-22T12:33:15.878Z,7.3
2017-09-22T12:34:18.291Z,7.2
2017-09-22T12:35:20.725Z,7.3
2017-09-22T12:36:23.148Z,7.3
2017-09-22T12:37:25.571Z,7.3
2017-09-22T12:38:28.344Z,7.3
2017-09-22T12:39:30.813Z,7.3
2017-09-22T12:40:33.314Z,7.3
2017-09-22T12:41:36.611Z,7.2
2017-09-22T12:42:39.132Z,7.3
2017-09-22T12:43:41.670Z,7.3
2017-09-22T12:44:44.103Z,7.3
2017-09-22T12:45:46.601Z,7.3
2017-09-22T12:46:49.061Z,7.3
2017-09-22T12:47:51.903Z,7.3
2017-09-22T12:48:54.376Z,7.3
2017-09-22T12:49:56.831Z,7.3
2017-09-22T12:50:59.309Z,7.3
2017-09-22T12:52:01.776Z,7.3
2017-09-22T12:53:04.193Z,7.3
2017-09-22T12:54:06.773Z,7.3
2017-09-22T12:55:09.238Z,7.2
2017-09-22T12:56:11.730Z,7.3
2017-09-22T12:57:14.335Z,7.3
2017-09-22T12:58:16.758Z,7.3
2017-09-22T12:59:19.180Z,7.3
2017-09-22T13:00:21.935Z,7.3
2017-09-22T13:01:24.373Z,7.3
2017-09-22T13:02:26.797Z,7.3
2017-09-22T13:03:29.245Z,7.3
2017-09-22T13:04:31.660Z,7.3
2017-09-22T13:05:34.096Z,7.3
2017-09-22T13:06:36.517Z,7.3
2017-09-22T13:07:38.950Z,7.3
2017-09-22T13:08:41.371Z,7.3
2017-09-22T13:09:43.790Z,7.3
2017-09-22T13:10:46.212Z,7.3
2017-09-22T13:11:48.963Z,7.3
2017-09-22T13:12:51.373Z,7.3
2017-09-22T13:13:53.797Z,7.3
2017-09-22T13:14:56.207Z,7.3
2017-09-22T13:15:58.612Z,7.3
2017-09-22T13:17:01.027Z,7.3
2017-09-22T13:18:03.781Z,7.3
2017-09-22T13:19:06.196Z,7.3
2017-09-22T13:20:08.613Z,7.3
2017-09-22T13:21:11.026Z,7.3
2017-09-22T13:22:13.445Z,7.3
2017-09-22T13:23:15.876Z,7.3
2017-09-22T13:24:18.302Z,7.3
2017-09-22T13:25:20.716Z,7.3
2017-09-22T13:26:23.468Z,7.3
2017-09-22T13:27:25.887Z,7.3
2017-09-22T13:28:28.306Z,7.3
2017-09-22T13:29:30.715Z,7.3
2017-09-22T13:30:33.124Z,7.3
2017-09-22T13:31:35.534Z,7.3
2017-09-22T13:32:37.953Z,7.3
2017-09-22T13:33:40.370Z,7.3
2017-09-22T13:34:42.795Z,7.3
2017-09-22T13:35:45.877Z,7.3
2017-09-22T13:36:48.982Z,7.4
2017-09-22T13:37:51.404Z,7.3
2017-09-22T13:38:53.821Z,7.3
2017-09-22T13:39:56.576Z,7.3
2017-09-22T13:40:58.993Z,7.3
2017-09-22T13:42:01.411Z,7.3
2017-09-22T13:43:03.855Z,7.4
2017-09-22T13:44:06.260Z,7.3
2017-09-22T13:45:08.680Z,7.3
2017-09-22T13:46:11.444Z,7.3
2017-09-22T13:47:13.846Z,7.3
2017-09-22T13:48:16.261Z,7.3
2017-09-22T13:49:18.679Z,7.3
2017-09-22T13:50:21.090Z,7.4
2017-09-22T13:51:23.859Z,7.3
2017-09-22T13:52:26.276Z,7.3
2017-09-22T13:53:28.686Z,7.3
2017-09-22T13:54:31.452Z,7.3
2017-09-22T13:55:33.869Z,7.4
2017-09-22T13:56:36.288Z,7.3
2017-09-22T13:57:38.705Z,7.3
2017-09-22T13:58:41.118Z,7.4
2017-09-22T13:59:43.543Z,7.3
2017-09-22T14:00:45.951Z,7.3
2017-09-22T14:01:48.703Z,7.4
2017-09-22T14:02:51.118Z,7.3
2017-09-22T14:03:53.538Z,7.4
2017-09-22T14:04:55.957Z,7.4
2017-09-22T14:05:58.370Z,7.3
2017-09-22T14:07:00.784Z,7.3
2017-09-22T14:08:03.192Z,7.4
2017-09-22T14:09:05.617Z,7.3
2017-09-22T14:10:08.395Z,7.3
2017-09-22T14:11:10.768Z,7.3
2017-09-22T14:12:13.190Z,7.3
2017-09-22T14:13:15.603Z,7.3
2017-09-22T14:14:18.012Z,7.3
2017-09-22T14:15:20.428Z,7.3
2017-09-22T14:16:22.838Z,7.3
2017-09-22T14:17:25.255Z,7.3
2017-09-22T14:18:27.681Z,7.3
2017-09-22T14:19:30.087Z,7.3
2017-09-22T14:20:32.501Z,7.3
2017-09-22T14:21:34.918Z,7.3
2017-09-22T14:22:37.333Z,7.3